Time;durP1;ratioP1;P1;durP2;ratioP2;P2;SDS_P1;SDS_P2;PMS_P1;PMS_P2;Temp;Humidity;BMP_temperature;BMP_pressure;BME280_temperature;BME280_humidity;BME280_pressure;Samples;Min_cycle;Max_cycle;Signal;HPM_P1;HPM_P2
2022/05/10 06:08:28;;;;;;;6.85;2.90;;;21.50;99.90;;;;;;4839505;23;20246;-72
2022/05/10 06:10:55;;;;;;;6.18;3.10;;;21.60;99.90;;;;;;4976406;28;20554;-72
2022/05/10 06:13:22;;;;;;;7.50;2.85;;;21.40;99.90;;;;;;4967951;28;20282;-71
2022/05/10 06:15:50;;;;;;;6.38;3.13;;;21.30;99.90;;;;;;4970693;28;20204;-72
2022/05/10 06:18:17;;;;;;;5.47;2.60;;;21.00;99.90;;;;;;4968280;28;20203;-72
2022/05/10 06:20:43;;;;;;;5.70;2.85;;;21.00;99.90;;;;;;4956693;28;20659;-72
2022/05/10 06:23:10;;;;;;;6.90;2.88;;;20.90;99.90;;;;;;4965486;28;20672;-72
2022/05/10 06:25:38;;;;;;;10.32;2.90;;;21.00;99.90;;;;;;4976000;28;20211;-72
2022/05/10 06:28:05;;;;;;;9.15;3.03;;;21.00;99.90;;;;;;4976001;28;20211;-72
2022/05/10 06:30:33;;;;;;;6.20;2.70;;;21.20;99.90;;;;;;4975911;28;20214;-72
2022/05/10 06:33:01;;;;;;;5.60;2.65;;;21.20;99.90;;;;;;4975696;28;20352;-71
2022/05/10 06:35:29;;;;;;;6.90;3.00;;;21.30;99.90;;;;;;4965710;28;20275;-72
2022/05/10 06:40:48;;;;;;;7.93;3.10;;;21.60;99.90;;;;;;4944173;28;20203;-72
2022/05/10 06:43:17;;;;;;;6.22;2.88;;;21.90;99.90;;;;;;4965580;28;20199;-72
2022/05/10 06:45:44;;;;;;;5.43;2.78;;;22.40;99.90;;;;;;4975865;28;20566;-72
2022/05/10 06:48:11;;;;;;;6.95;2.80;;;22.90;99.90;;;;;;4959307;28;20738;-72
2022/05/10 06:50:38;;;;;;;7.65;3.00;;;23.30;99.90;;;;;;4956001;28;20675;-72
2022/05/10 06:53:06;;;;;;;4.65;2.40;;;23.40;99.90;;;;;;4956028;28;20236;-72
2022/05/10 06:55:35;;;;;;;4.50;2.40;;;23.90;99.90;;;;;;4956230;28;20247;-72
2022/05/10 06:58:04;;;;;;;4.40;2.25;;;24.00;99.70;;;;;;4956074;28;20204;-72
2022/05/10 07:00:32;;;;;;;4.25;2.00;;;23.70;99.80;;;;;;4973087;28;20204;-72
2022/05/10 07:02:59;;;;;;;3.90;2.30;;;23.80;99.90;;;;;;4975183;28;20214;-71
2022/05/10 07:05:26;;;;;;;6.13;2.60;;;24.00;99.90;;;;;;4975150;28;20231;-72
2022/05/10 07:07:53;;;;;;;5.88;2.13;;;23.90;99.90;;;;;;4975120;28;20241;-71
2022/05/10 07:10:20;;;;;;;6.47;2.47;;;23.80;99.70;;;;;;4975045;28;20217;-71
2022/05/10 07:12:46;;;;;;;4.60;2.30;;;23.40;99.90;;;;;;4969777;28;20228;-71
2022/05/10 07:15:19;;;;;;;3.78;2.20;;;23.50;99.90;;;;;;4965348;28;20722;-72
2022/05/10 07:17:47;;;;;;;3.15;2.00;;;23.40;99.90;;;;;;4957786;28;20205;-73
2022/05/10 07:20:17;;;;;;;5.28;1.95;;;23.40;99.90;;;;;;4975263;28;20230;-72
2022/05/10 07:22:44;;;;;;;4.32;2.40;;;23.20;99.90;;;;;;4975055;28;20211;-72
2022/05/10 07:25:13;;;;;;;5.78;2.08;;;23.30;99.90;;;;;;4957953;28;20241;-72
2022/05/10 07:27:41;;;;;;;4.60;2.20;;;23.30;99.90;;;;;;4956028;28;20204;-72
2022/05/10 07:30:11;;;;;;;3.50;2.30;;;23.20;99.90;;;;;;4955623;28;20208;-72
2022/05/10 07:32:40;;;;;;;4.40;2.28;;;23.20;99.90;;;;;;4974000;28;20543;-72
2022/05/10 07:35:07;;;;;;;4.25;1.88;;;23.00;99.90;;;;;;4974704;28;20326;-72
2022/05/10 07:37:35;;;;;;;2.30;1.70;;;22.90;99.90;;;;;;4974772;28;20287;-72
2022/05/10 07:40:02;;;;;;;3.75;1.80;;;22.80;99.90;;;;;;4974546;28;20294;-73
2022/05/10 07:42:29;;;;;;;2.78;1.52;;;22.90;99.90;;;;;;4974416;28;20215;-73
2022/05/10 07:44:56;;;;;;;3.22;2.03;;;22.80;99.90;;;;;;4974269;28;20227;-73
2022/05/10 07:47:23;;;;;;;4.35;1.80;;;22.80;99.90;;;;;;4974337;28;20234;-72
2022/05/10 07:49:51;;;;;;;3.05;2.08;;;22.70;99.90;;;;;;4974498;28;20263;-71
2022/05/10 07:52:18;;;;;;;2.88;1.83;;;22.50;99.90;;;;;;4974566;28;20307;-72
2022/05/10 07:54:45;;;;;;;3.25;1.92;;;22.50;99.90;;;;;;4974200;28;20607;-72
2022/05/10 07:57:12;;;;;;;2.17;1.70;;;22.50;99.90;;;;;;4974573;28;20217;-72
2022/05/10 07:59:39;;;;;;;2.33;1.50;;;22.70;99.90;;;;;;4974588;28;20209;-72
2022/05/10 08:02:07;;;;;;;2.08;1.40;;;23.00;99.90;;;;;;4974117;28;20214;-72
2022/05/10 08:04:34;;;;;;;5.43;1.98;;;23.20;99.90;;;;;;4974305;28;20227;-73
2022/05/10 08:07:03;;;;;;;2.08;1.70;;;23.20;99.90;;;;;;4971926;28;20219;-72
2022/05/10 08:09:30;;;;;;;2.22;1.70;;;23.50;99.90;;;;;;4954202;28;20642;-73
2022/05/10 08:11:57;;;;;;;1.90;1.60;;;23.70;99.90;;;;;;4954626;28;20271;-72
2022/05/10 08:14:24;;;;;;;2.45;1.58;;;23.80;99.90;;;;;;4954907;28;20242;-73
2022/05/10 08:16:50;;;;;;;3.42;1.60;;;24.10;99.90;;;;;;4955081;28;20212;-73
2022/05/10 08:19:17;;;;;;;1.90;1.60;;;24.70;99.80;;;;;;4959366;28;20199;-72
2022/05/10 08:21:44;;;;;;;1.92;1.35;;;24.80;99.60;;;;;;4961475;28;20218;-72
2022/05/10 08:24:12;;;;;;;4.22;1.67;;;25.00;99.90;;;;;;4954381;28;20232;-72
2022/05/10 08:26:39;;;;;;;2.35;1.48;;;25.20;99.20;;;;;;4973477;28;20214;-72
2022/05/10 08:29:06;;;;;;;1.52;1.27;;;25.20;99.40;;;;;;4968071;28;20222;-73
2022/05/10 08:31:32;;;;;;;2.30;1.52;;;25.00;98.50;;;;;;4954431;28;20651;-73
2022/05/10 08:34:00;;;;;;;3.22;1.50;;;24.90;98.60;;;;;;4960456;28;20241;-72
2022/05/10 08:36:26;;;;;;;2.30;1.60;;;25.00;98.80;;;;;;4966262;28;20291;-73
2022/05/10 08:38:54;;;;;;;1.60;1.30;;;25.30;98.40;;;;;;4954330;28;20214;-72
2022/05/10 08:41:26;;;;;;;1.73;1.40;;;25.40;98.00;;;;;;4965007;28;20726;-72
2022/05/10 08:44:00;;;;;;;2.50;1.42;;;25.30;97.80;;;;;;4973921;28;20590;-73
2022/05/10 08:46:32;;;;;;;2.55;1.27;;;25.30;97.20;;;;;;4973657;28;20199;-73
2022/05/10 08:49:04;;;;;;;3.22;1.40;;;25.30;97.60;;;;;;4974059;28;20199;-73
2022/05/10 08:51:31;;;;;;;5.35;1.65;;;25.10;97.40;;;;;;4974034;28;20214;-72
2022/05/10 08:53:59;;;;;;;1.50;1.25;;;24.90;97.60;;;;;;4973257;28;20238;-73
2022/05/10 08:56:31;;;;;;;1.77;1.40;;;25.10;97.30;;;;;;4973510;28;20214;-72
2022/05/10 08:59:09;;;;;;;2.67;1.27;;;25.10;97.50;;;;;;4973602;28;20203;-73
2022/05/10 09:01:42;;;;;;;1.92;1.45;;;25.10;97.40;;;;;;4973569;28;20209;-73
2022/05/10 09:04:23;;;;;;;2.25;1.33;;;24.90;97.30;;;;;;4973657;28;20227;-73
2022/05/10 09:06:58;;;;;;;2.60;1.40;;;25.10;97.50;;;;;;4973507;28;20219;-73
2022/05/10 09:09:28;;;;;;;3.08;1.85;;;25.00;97.60;;;;;;4973581;28;20203;-73
2022/05/10 09:12:09;;;;;;;3.42;1.77;;;25.10;97.50;;;;;;4973798;28;20306;-73
2022/05/10 09:14:43;;;;;;;2.95;1.60;;;25.50;97.40;;;;;;4973496;28;20839;-73
2022/05/10 09:17:11;;;;;;;3.45;1.50;;;25.70;97.00;;;;;;4973880;28;20218;-73
2022/05/10 09:19:40;;;;;;;2.97;1.50;;;26.00;96.90;;;;;;4973920;28;20210;-73
2022/05/10 09:22:17;;;;;;;1.83;1.50;;;26.40;95.80;;;;;;4977136;28;20217;-72
2022/05/10 09:24:51;;;;;;;1.88;1.33;;;26.40;96.40;;;;;;4976887;28;20625;-73
2022/05/10 09:27:21;;;;;;;3.08;1.60;;;26.70;95.70;;;;;;4976930;28;20207;-73
2022/05/10 09:29:50;;;;;;;1.85;1.60;;;26.70;94.70;;;;;;4976827;28;20527;-72
2022/05/10 09:35:12;;;;;;;1.50;1.40;;;26.30;95.60;;;;;;4976279;28;20247;-72
2022/05/10 09:37:44;;;;;;;1.90;1.40;;;26.30;95.60;;;;;;4976340;28;20681;-72
2022/05/10 09:40:32;;;;;;;2.67;1.50;;;26.20;95.50;;;;;;4976253;28;20558;-72
2022/05/10 09:43:18;;;;;;;2.20;1.50;;;26.20;95.70;;;;;;4976702;28;20270;-73
2022/05/10 09:45:46;;;;;;;2.60;1.63;;;26.60;95.80;;;;;;4976489;28;20214;-72
2022/05/10 09:48:18;;;;;;;3.00;1.50;;;27.10;95.70;;;;;;4976874;28;20207;-72
2022/05/10 09:50:46;;;;;;;1.67;1.50;;;27.30;94.60;;;;;;4976486;28;20207;-72
2022/05/10 09:53:20;;;;;;;4.25;1.50;;;27.20;94.10;;;;;;4976021;28;20686;-72
2022/05/10 09:56:00;;;;;;;2.75;1.52;;;27.10;94.70;;;;;;4976298;28;20684;-73
2022/05/10 09:58:31;;;;;;;2.30;1.52;;;26.70;95.10;;;;;;4976727;28;20254;-73
2022/05/10 10:01:00;;;;;;;5.38;1.40;;;26.20;95.10;;;;;;4976288;28;20218;-72
2022/05/10 10:03:32;;;;;;;3.17;1.48;;;26.10;95.60;;;;;;4976024;28;20207;-72
2022/05/10 10:06:14;;;;;;;2.97;1.60;;;26.10;95.60;;;;;;4976763;28;20227;-72
2022/05/10 10:08:43;;;;;;;1.80;1.50;;;25.90;95.80;;;;;;4986787;28;20649;-73
2022/05/10 10:11:27;;;;;;;1.92;1.45;;;25.70;95.30;;;;;;4994464;28;20217;-75
2022/05/10 10:13:58;;;;;;;2.65;1.50;;;25.60;96.10;;;;;;4993910;28;20928;-75
2022/05/10 10:16:27;;;;;;;2.58;1.73;;;25.80;96.00;;;;;;4992936;28;20210;-75
2022/05/10 10:18:56;;;;;;;1.73;1.58;;;25.50;96.50;;;;;;4974808;28;20203;-76
2022/05/10 10:21:32;;;;;;;1.83;1.40;;;25.50;95.90;;;;;;4974543;28;20326;-75
2022/05/10 10:24:00;;;;;;;2.08;1.73;;;25.80;95.90;;;;;;4975086;28;20235;-73
2022/05/10 10:26:34;;;;;;;3.28;1.33;;;26.00;96.10;;;;;;4974472;28;20239;-75
2022/05/10 10:29:11;;;;;;;3.50;1.50;;;26.20;96.10;;;;;;4974268;28;20218;-76
2022/05/10 10:31:42;;;;;;;1.50;1.40;;;26.50;95.40;;;;;;4973871;28;20227;-72
2022/05/10 10:34:15;;;;;;;5.35;1.48;;;26.50;95.70;;;;;;4974064;28;20249;-73
2022/05/10 10:36:48;;;;;;;3.17;1.52;;;26.60;94.80;;;;;;4973485;28;20223;-74
2022/05/10 10:39:25;;;;;;;2.03;1.27;;;26.80;95.40;;;;;;4974381;28;20217;-73
2022/05/10 10:41:57;;;;;;;4.45;1.80;;;26.70;94.50;;;;;;4974298;28;20209;-72
2022/05/10 10:44:27;;;;;;;2.42;1.50;;;26.50;94.60;;;;;;4974077;28;20227;-73
2022/05/10 10:47:05;;;;;;;3.33;1.55;;;26.60;94.60;;;;;;4974339;28;20204;-73
2022/05/10 10:49:37;;;;;;;1.75;1.58;;;26.60;94.30;;;;;;4974167;28;20586;-72
2022/05/10 10:52:04;;;;;;;8.05;1.90;;;26.60;95.60;;;;;;4973395;28;20218;-72
2022/05/10 10:54:32;;;;;;;2.63;1.60;;;26.90;94.50;;;;;;4968088;28;20240;-73
2022/05/10 10:57:25;;;;;;;1.83;1.48;;;27.20;94.40;;;;;;4961416;28;20298;-72
2022/05/10 11:00:07;;;;;;;1.88;1.60;;;27.30;94.70;;;;;;4974093;28;20265;-73
2022/05/10 11:02:59;;;;;;;2.00;1.50;;;27.00;93.30;;;;;;4973812;28;20210;-73
2022/05/10 11:05:51;;;;;;;1.67;1.58;;;26.90;93.60;;;;;;4963773;28;20235;-73
2022/05/10 11:08:28;;;;;;;3.08;1.35;;;27.00;94.00;;;;;;4973631;28;20246;-73
2022/05/10 11:11:01;;;;;;;1.95;1.38;;;26.90;93.60;;;;;;4974253;28;20206;-72
2022/05/10 11:13:37;;;;;;;5.03;1.60;;;27.10;93.60;;;;;;4953754;28;20240;-73
2022/05/10 11:16:21;;;;;;;3.67;1.67;;;27.10;93.60;;;;;;4954643;28;20215;-73
2022/05/10 11:19:04;;;;;;;1.80;1.63;;;27.10;93.70;;;;;;4954843;28;20222;-73
2022/05/10 11:21:40;;;;;;;2.50;1.45;;;27.40;93.60;;;;;;4953356;28;20553;-73
2022/05/10 11:24:20;;;;;;;2.10;1.90;;;27.60;93.50;;;;;;4959697;28;20226;-72
2022/05/10 11:27:03;;;;;;;2.78;1.60;;;27.80;93.20;;;;;;4973663;28;20242;-72
2022/05/10 11:29:38;;;;;;;2.25;1.55;;;27.70;92.30;;;;;;4973344;28;20207;-73
2022/05/10 11:32:24;;;;;;;3.88;1.70;;;27.80;93.00;;;;;;4973789;28;20213;-73
2022/05/10 11:35:22;;;;;;;3.50;1.48;;;27.70;92.50;;;;;;4973196;28;20246;-74
2022/05/10 11:37:55;;;;;;;6.00;1.77;;;27.70;92.90;;;;;;4972661;28;20211;-74
2022/05/10 11:40:54;;;;;;;2.78;1.55;;;27.60;92.70;;;;;;4973410;28;20210;-73
2022/05/10 11:43:43;;;;;;;4.00;1.58;;;27.30;92.30;;;;;;4972489;28;20211;-73
2022/05/10 11:46:51;;;;;;;2.95;1.50;;;26.70;93.10;;;;;;4973406;28;20211;-72
2022/05/10 11:49:48;;;;;;;2.75;1.40;;;26.80;93.40;;;;;;4973696;28;20211;-73
2022/05/10 11:52:44;;;;;;;3.85;2.05;;;27.10;93.60;;;;;;4972297;28;20299;-73
2022/05/10 11:55:25;;;;;;;4.20;1.20;;;27.10;91.80;;;;;;4971350;28;20265;-75
2022/05/10 11:57:58;;;;;;;1.40;1.30;;;27.00;92.10;;;;;;4972558;28;20307;-75
2022/05/10 12:00:50;;;;;;;3.35;1.45;;;27.10;92.90;;;;;;4973380;28;20207;-75
2022/05/10 12:04:05;;;;;;;3.15;1.67;;;27.10;92.10;;;;;;4973544;28;20207;-74
2022/05/10 12:06:43;;;;;;;1.85;1.55;;;27.00;92.30;;;;;;4972711;28;20229;-73
2022/05/10 12:09:38;;;;;;;2.15;1.75;;;27.00;92.60;;;;;;4972720;28;20302;-73
2022/05/10 12:12:06;;;;;;;5.25;1.83;;;26.80;92.30;;;;;;4972820;28;20211;-75
2022/05/10 12:24:11;;;;;;;2.20;1.60;;;26.60;92.90;;;;;;4972667;28;20210;-73
2022/05/10 12:26:43;;;;;;;6.43;1.73;;;26.60;93.30;;;;;;4972586;28;20218;-74
2022/05/10 12:29:42;;;;;;;2.17;1.60;;;26.90;93.20;;;;;;4972385;28;20211;-72
2022/05/10 12:32:10;;;;;;;1.88;1.48;;;27.20;93.20;;;;;;4965995;28;20297;-72
2022/05/10 12:34:50;;;;;;;2.58;1.42;;;27.10;92.10;;;;;;4974026;28;20309;-72
2022/05/10 12:37:55;;;;;;;2.60;2.22;;;27.10;92.70;;;;;;4973623;28;20211;-72
2022/05/10 12:40:54;;;;;;;2.88;1.67;;;26.80;92.30;;;;;;4973853;28;20211;-72
2022/05/10 12:43:55;;;;;;;2.28;1.40;;;26.80;92.20;;;;;;4974159;28;20218;-73
2022/05/10 12:46:36;;;;;;;2.60;1.88;;;26.90;92.10;;;;;;4973862;28;20300;-73
2022/05/10 12:49:17;;;;;;;4.25;1.50;;;27.00;92.40;;;;;;4973918;28;20301;-73
2022/05/10 12:51:50;;;;;;;2.40;1.35;;;26.80;92.50;;;;;;4973779;28;20282;-72
2022/05/10 12:54:22;;;;;;;3.75;1.60;;;26.50;93.10;;;;;;4973438;28;20230;-73
2022/05/10 12:57:08;;;;;;;1.77;1.52;;;26.80;93.50;;;;;;4977115;28;20210;-73
2022/05/10 12:59:45;;;;;;;2.45;1.67;;;27.00;92.70;;;;;;4977774;28;20211;-73
2022/05/10 13:02:14;;;;;;;2.10;1.52;;;27.40;94.00;;;;;;4978007;28;20229;-72
2022/05/10 13:04:44;;;;;;;2.13;1.45;;;27.60;93.10;;;;;;4977436;28;20725;-73
2022/05/10 13:07:21;;;;;;;2.60;1.65;;;27.60;92.20;;;;;;4977770;28;20573;-73
2022/05/10 13:09:54;;;;;;;2.78;1.58;;;27.30;92.30;;;;;;4977616;28;20214;-72
2022/05/10 13:12:26;;;;;;;1.48;1.38;;;27.60;93.20;;;;;;4973887;28;20214;-72
2022/05/10 13:14:57;;;;;;;3.20;1.80;;;27.80;92.50;;;;;;4975399;28;20238;-74
2022/05/10 13:17:27;;;;;;;1.92;1.70;;;27.70;92.20;;;;;;4976026;28;20203;-72
2022/05/10 13:19:55;;;;;;;4.38;1.85;;;27.40;91.40;;;;;;4975362;28;20233;-73
2022/05/10 13:22:22;;;;;;;3.63;1.73;;;27.30;91.10;;;;;;4975661;28;20199;-72
2022/05/10 13:24:52;;;;;;;1.67;1.48;;;27.10;91.20;;;;;;4987427;28;20233;-73
2022/05/10 13:27:26;;;;;;;1.70;1.50;;;27.00;91.60;;;;;;4995078;28;20550;-72
2022/05/10 13:29:54;;;;;;;7.90;1.88;;;27.00;91.50;;;;;;4994799;28;20216;-72
2022/05/10 13:32:34;;;;;;;2.72;1.85;;;26.90;91.20;;;;;;4990252;28;20207;-72
2022/05/10 13:35:09;;;;;;;2.92;2.05;;;26.40;91.50;;;;;;4975230;28;20329;-72
2022/05/10 13:37:38;;;;;;;3.38;1.55;;;26.40;92.00;;;;;;4975445;28;20349;-72
2022/05/10 13:40:13;;;;;;;2.92;1.60;;;26.70;92.30;;;;;;4975693;28;20574;-73
2022/05/10 13:42:46;;;;;;;2.22;1.80;;;26.60;91.80;;;;;;4974297;28;20211;-72
2022/05/10 13:45:19;;;;;;;2.40;1.60;;;26.40;92.20;;;;;;4974216;28;20731;-72
2022/05/10 13:47:48;;;;;;;4.50;1.70;;;26.40;92.60;;;;;;4975506;28;20207;-73
2022/05/10 13:50:21;;;;;;;3.88;1.98;;;26.50;92.50;;;;;;4975253;28;20222;-72
2022/05/10 13:52:53;;;;;;;3.47;1.65;;;26.80;92.20;;;;;;4975188;28;20207;-74
2022/05/10 13:55:21;;;;;;;2.50;1.73;;;26.90;92.40;;;;;;4975240;28;20286;-74
2022/05/10 13:57:53;;;;;;;3.65;1.90;;;27.10;92.70;;;;;;4975268;28;20302;-75
2022/05/10 14:00:25;;;;;;;2.45;1.80;;;27.20;92.10;;;;;;4975403;28;20207;-73
2022/05/10 14:02:54;;;;;;;2.10;1.90;;;27.20;92.50;;;;;;4975118;28;20211;-72
2022/05/10 14:05:22;;;;;;;2.15;1.70;;;27.10;91.90;;;;;;4974548;28;20231;-72
2022/05/10 14:07:55;;;;;;;3.85;1.90;;;27.00;93.10;;;;;;4973608;28;20226;-71
2022/05/10 14:10:22;;;;;;;2.53;1.73;;;27.00;93.10;;;;;;4974425;28;20613;-72
2022/05/10 14:12:53;;;;;;;2.28;1.77;;;27.10;92.30;;;;;;4974413;28;20218;-71
2022/05/10 14:15:26;;;;;;;2.53;1.77;;;27.10;92.10;;;;;;4974873;28;20235;-72
2022/05/10 14:17:57;;;;;;;2.25;1.90;;;27.10;92.50;;;;;;4974736;28;20199;-72
2022/05/10 14:20:27;;;;;;;2.72;1.83;;;26.90;92.50;;;;;;4974096;28;20207;-72
2022/05/10 14:22:57;;;;;;;2.53;1.83;;;26.80;92.60;;;;;;4974740;28;20309;-73
2022/05/10 14:25:25;;;;;;;3.17;1.80;;;26.80;93.10;;;;;;4974890;28;20241;-73
2022/05/10 14:28:05;;;;;;;4.72;1.63;;;26.90;92.30;;;;;;4973512;28;20678;-73
2022/05/10 14:30:39;;;;;;;2.10;1.70;;;26.90;92.30;;;;;;4975484;28;20666;-71
2022/05/10 14:33:15;;;;;;;2.50;1.42;;;26.90;92.80;;;;;;4975874;28;20203;-72
2022/05/10 14:35:46;;;;;;;2.55;1.40;;;26.90;91.80;;;;;;4975787;28;20238;-72
2022/05/10 14:38:17;;;;;;;1.88;1.20;;;26.80;91.10;;;;;;4976452;28;20208;-72
2022/05/10 14:40:47;;;;;;;4.10;1.30;;;27.00;90.30;;;;;;4975854;28;20214;-70
2022/05/10 14:43:27;;;;;;;2.85;1.48;;;27.10;90.20;;;;;;4975263;28;20222;-71
2022/05/10 14:45:55;;;;;;;2.60;1.30;;;27.20;91.00;;;;;;4975709;28;20240;-71
2022/05/10 14:48:45;;;;;;;17.60;2.22;;;27.50;89.60;;;;;;4975690;28;20207;-71
2022/05/10 14:51:38;;;;;;;4.32;1.67;;;27.30;89.60;;;;;;4975584;28;20575;-72
2022/05/10 14:54:06;;;;;;;4.10;1.80;;;26.70;90.30;;;;;;4974405;28;20234;-72
2022/05/10 14:56:38;;;;;;;3.13;1.20;;;26.60;90.30;;;;;;4975783;28;20235;-70
2022/05/10 14:59:19;;;;;;;2.20;1.40;;;26.70;90.70;;;;;;4975683;28;20566;-71
2022/05/10 15:01:47;;;;;;;2.47;1.23;;;26.90;90.40;;;;;;4975506;28;20566;-70
2022/05/10 15:04:30;;;;;;;5.00;1.55;;;27.00;90.50;;;;;;4975075;28;20654;-69
2022/05/10 15:06:57;;;;;;;2.47;1.10;;;27.00;89.50;;;;;;4975033;28;20223;-71
2022/05/10 15:09:24;;;;;;;2.60;1.20;;;27.10;89.50;;;;;;4975032;28;20663;-70
2022/05/10 15:14:37;;;;;;;1.85;1.10;;;27.10;90.10;;;;;;4975001;28;20307;-69
2022/05/10 15:17:12;;;;;;;3.33;1.10;;;27.00;88.40;;;;;;4975281;28;20231;-70
2022/05/10 15:19:39;;;;;;;2.50;1.00;;;27.00;87.00;;;;;;4974823;28;20206;-70
2022/05/10 15:22:06;;;;;;;0.98;0.80;;;27.00;85.60;;;;;;4975221;28;20207;-70
2022/05/10 15:24:32;;;;;;;1.15;0.90;;;26.80;86.30;;;;;;4975045;28;20227;-70
2022/05/10 15:26:59;;;;;;;2.35;0.90;;;27.00;87.00;;;;;;4975043;28;20748;-70
2022/05/10 15:29:30;;;;;;;3.20;0.80;;;27.00;85.70;;;;;;4975137;28;20207;-71
2022/05/10 15:31:58;;;;;;;2.47;0.77;;;26.80;83.70;;;;;;4974569;28;20672;-70
2022/05/10 15:34:44;;;;;;;1.48;0.80;;;26.80;84.70;;;;;;4974553;28;20227;-70
2022/05/10 15:37:11;;;;;;;2.75;1.13;;;26.60;81.90;;;;;;4974750;28;20231;-70
2022/05/10 15:39:39;;;;;;;4.07;1.00;;;26.50;81.90;;;;;;4974789;28;20203;-70
2022/05/10 15:42:08;;;;;;;2.50;1.00;;;26.60;80.80;;;;;;4974911;28;20211;-69
2022/05/10 15:44:34;;;;;;;1.52;0.70;;;26.30;79.60;;;;;;4971771;28;20240;-70
2022/05/10 15:47:04;;;;;;;2.55;0.70;;;26.20;80.10;;;;;;4956657;28;20623;-70
2022/05/10 15:49:30;;;;;;;2.00;0.68;;;26.00;79.50;;;;;;4955574;28;20566;-69
2022/05/10 15:51:57;;;;;;;1.98;0.90;;;25.90;80.70;;;;;;4955092;28;20203;-69
2022/05/10 15:54:25;;;;;;;0.90;0.70;;;25.80;79.50;;;;;;4954757;28;20234;-70
2022/05/10 15:56:51;;;;;;;1.65;0.70;;;25.60;81.00;;;;;;4955224;28;20239;-69
2022/05/10 15:59:18;;;;;;;0.90;0.60;;;25.60;80.20;;;;;;4954895;28;20215;-69
2022/05/10 16:01:47;;;;;;;2.85;1.05;;;25.50;81.10;;;;;;4954840;28;20215;-69
2022/05/10 16:04:15;;;;;;;0.98;0.80;;;25.30;82.10;;;;;;4958003;28;20589;-70
2022/05/10 16:06:42;;;;;;;0.88;0.70;;;25.50;83.20;;;;;;4954169;28;20224;-69
2022/05/10 16:09:08;;;;;;;1.35;0.80;;;25.40;85.70;;;;;;4954446;28;20208;-70
2022/05/10 16:11:35;;;;;;;1.20;0.75;;;25.20;85.80;;;;;;4955055;28;20578;-70
2022/05/10 16:14:03;;;;;;;1.40;0.82;;;25.30;89.50;;;;;;4954218;28;20236;-71
2022/05/10 16:16:32;;;;;;;1.00;0.90;;;25.40;88.10;;;;;;4954437;28;20239;-70
2022/05/10 16:18:59;;;;;;;1.77;1.00;;;25.40;87.40;;;;;;4954236;28;20212;-70
2022/05/10 16:21:28;;;;;;;1.33;0.80;;;25.30;85.70;;;;;;4954231;28;20212;-70
2022/05/10 16:23:55;;;;;;;2.63;0.80;;;25.30;87.90;;;;;;4957127;28;20239;-70
2022/05/10 16:31:52;;;;;;;1.45;1.25;;;25.20;89.10;;;;;;4954151;28;20211;-71
2022/05/10 16:34:18;;;;;;;3.75;0.80;;;25.20;88.60;;;;;;4954513;28;20302;-70
2022/05/10 16:36:46;;;;;;;1.33;0.93;;;25.30;86.90;;;;;;4953595;28;20717;-70
2022/05/10 16:39:13;;;;;;;1.48;0.73;;;25.30;88.20;;;;;;4961013;28;20207;-69
2022/05/10 16:41:40;;;;;;;1.98;0.95;;;25.20;87.00;;;;;;4959884;28;20545;-70
2022/05/10 16:44:07;;;;;;;2.88;1.10;;;25.10;88.30;;;;;;4952893;28;20251;-70
2022/05/10 16:46:34;;;;;;;1.80;1.20;;;25.00;87.90;;;;;;4953719;28;20207;-70
2022/05/10 16:49:02;;;;;;;2.60;0.93;;;24.90;87.90;;;;;;4954286;28;20222;-69
2022/05/10 16:51:29;;;;;;;1.48;0.82;;;24.90;88.70;;;;;;4953332;28;20212;-70
2022/05/10 16:53:57;;;;;;;1.75;1.10;;;25.00;88.60;;;;;;4953507;28;20717;-69
2022/05/10 16:56:24;;;;;;;1.40;0.80;;;24.90;88.70;;;;;;4953737;28;20247;-69
2022/05/10 16:58:51;;;;;;;1.13;0.98;;;24.90;87.80;;;;;;4957017;28;20200;-69
2022/05/10 17:01:18;;;;;;;2.53;0.80;;;25.20;89.50;;;;;;4953720;28;20566;-70
2022/05/10 17:03:45;;;;;;;2.00;1.10;;;25.20;89.30;;;;;;4953645;28;20238;-70
2022/05/10 17:06:12;;;;;;;1.65;0.80;;;25.20;89.90;;;;;;4953632;28;20212;-70
2022/05/10 17:08:38;;;;;;;2.80;0.80;;;25.20;88.70;;;;;;4963587;28;20210;-70
2022/05/10 17:11:07;;;;;;;1.48;1.00;;;25.20;89.30;;;;;;4972777;28;20211;-72
2022/05/10 17:13:35;;;;;;;3.78;1.30;;;25.20;89.20;;;;;;4971263;28;20229;-68
2022/05/10 17:16:02;;;;;;;2.20;1.33;;;25.10;90.80;;;;;;4969231;28;20227;-69
2022/05/10 17:18:29;;;;;;;1.90;1.13;;;24.90;91.60;;;;;;4972805;28;20203;-68
2022/05/10 17:21:00;;;;;;;2.33;1.30;;;24.80;91.40;;;;;;4972839;28;20219;-68
2022/05/10 17:23:27;;;;;;;2.58;1.45;;;24.60;91.60;;;;;;4972489;28;20657;-72
2022/05/10 17:25:54;;;;;;;1.40;1.10;;;24.40;91.90;;;;;;4972775;28;20219;-71
2022/05/10 17:28:44;;;;;;;2.30;1.02;;;24.20;92.50;;;;;;4973226;28;20234;-70
2022/05/10 17:31:13;;;;;;;4.65;1.40;;;24.20;92.40;;;;;;4966451;28;20239;-71
2022/05/10 17:33:41;;;;;;;1.60;1.00;;;24.00;92.20;;;;;;4953372;28;20232;-69
2022/05/10 17:36:11;;;;;;;2.45;1.25;;;23.90;92.30;;;;;;4953642;28;20228;-70
2022/05/10 17:38:38;;;;;;;1.02;0.90;;;24.00;92.50;;;;;;4953846;28;20211;-71
2022/05/10 17:41:06;;;;;;;3.10;1.20;;;23.90;92.80;;;;;;4953868;28;20204;-71
2022/05/10 17:43:36;;;;;;;2.00;1.10;;;23.80;93.00;;;;;;4956229;28;20232;-71
2022/05/10 17:46:04;;;;;;;1.42;1.02;;;23.70;93.10;;;;;;4956912;28;20683;-70
2022/05/10 17:48:31;;;;;;;1.63;1.17;;;23.70;93.30;;;;;;4960095;28;20678;-70
2022/05/10 17:51:07;;;;;;;1.23;1.10;;;23.70;93.00;;;;;;4956697;28;20320;-70
2022/05/10 17:53:35;;;;;;;1.17;0.95;;;23.60;92.80;;;;;;4956911;28;20231;-70
2022/05/10 17:56:02;;;;;;;1.20;1.10;;;23.50;93.10;;;;;;4956691;28;20262;-70
2022/05/10 17:58:29;;;;;;;1.60;0.98;;;23.30;93.00;;;;;;4956767;28;20219;-70
2022/05/10 18:00:58;;;;;;;1.75;1.05;;;23.20;93.30;;;;;;4956531;28;20308;-70
2022/05/10 18:03:25;;;;;;;1.90;1.15;;;23.20;93.20;;;;;;4956334;28;20215;-71
2022/05/10 18:05:52;;;;;;;1.27;0.93;;;23.20;93.20;;;;;;4959702;28;20204;-70
2022/05/10 18:08:19;;;;;;;1.08;0.75;;;23.30;92.80;;;;;;4956299;28;20679;-72
2022/05/10 18:10:47;;;;;;;2.35;0.80;;;23.20;92.30;;;;;;4956165;28;20208;-70
2022/05/10 18:13:14;;;;;;;1.73;0.80;;;23.00;92.40;;;;;;4956134;28;20212;-71
2022/05/10 18:15:41;;;;;;;1.48;0.73;;;22.90;92.10;;;;;;4956111;28;20208;-71
2022/05/10 18:18:09;;;;;;;2.78;0.70;;;22.90;91.70;;;;;;4956270;28;20216;-71
2022/05/10 18:20:36;;;;;;;1.83;0.55;;;22.70;91.70;;;;;;4956241;28;20219;-70
2022/05/10 18:23:03;;;;;;;1.10;0.65;;;22.50;90.80;;;;;;4958500;28;20204;-70
2022/05/10 18:25:31;;;;;;;3.35;0.70;;;22.40;90.20;;;;;;4960085;28;20220;-71
2022/05/10 18:27:58;;;;;;;2.35;0.80;;;22.30;90.60;;;;;;4956256;28;20208;-71
2022/05/10 18:30:26;;;;;;;2.33;0.68;;;22.20;90.70;;;;;;4956566;28;20208;-71
2022/05/10 18:32:53;;;;;;;0.77;0.47;;;22.20;90.60;;;;;;4956661;28;20212;-71
2022/05/10 18:35:22;;;;;;;1.05;0.50;;;22.30;90.70;;;;;;4955748;28;20224;-71
2022/05/10 18:37:49;;;;;;;0.70;0.60;;;22.20;90.60;;;;;;4956303;28;20243;-71
2022/05/10 18:40:18;;;;;;;1.90;0.77;;;22.10;90.30;;;;;;4968648;28;20214;-71
2022/05/10 18:42:45;;;;;;;1.33;0.82;;;22.10;90.80;;;;;;4969852;28;20203;-71
2022/05/10 18:45:15;;;;;;;0.93;0.50;;;22.10;89.80;;;;;;4968182;28;20562;-71
2022/05/10 18:47:42;;;;;;;1.00;0.52;;;21.90;89.50;;;;;;4974739;28;20218;-71
2022/05/10 18:50:09;;;;;;;1.73;0.77;;;21.70;90.40;;;;;;4968263;28;20290;-70
2022/05/10 18:52:39;;;;;;;1.40;0.55;;;21.60;90.10;;;;;;4969890;28;20211;-69
2022/05/10 18:55:07;;;;;;;0.80;0.60;;;21.60;90.50;;;;;;4966129;28;20227;-69
2022/05/10 18:57:34;;;;;;;0.82;0.50;;;21.70;90.10;;;;;;4964893;28;20228;-69
2022/05/10 19:00:01;;;;;;;3.25;0.90;;;21.60;90.10;;;;;;4970495;28;20210;-70
2022/05/10 19:02:28;;;;;;;1.15;0.70;;;21.40;89.80;;;;;;4965437;28;20203;-70
2022/05/10 19:04:54;;;;;;;0.57;0.50;;;21.40;90.10;;;;;;4973794;28;20223;-70
2022/05/10 19:07:21;;;;;;;0.80;0.60;;;21.40;90.60;;;;;;4970570;28;20207;-70
2022/05/10 19:09:49;;;;;;;0.63;0.50;;;21.40;90.40;;;;;;4974359;28;20207;-70
2022/05/10 19:12:16;;;;;;;0.57;0.52;;;21.40;90.50;;;;;;4957857;28;20204;-70
2022/05/10 19:14:43;;;;;;;1.45;0.80;;;21.40;90.90;;;;;;4960733;28;20230;-70
2022/05/10 19:17:10;;;;;;;3.47;0.60;;;21.40;90.80;;;;;;4965172;28;20231;-69
2022/05/10 19:19:37;;;;;;;0.82;0.57;;;21.30;90.60;;;;;;4967482;28;20234;-70
2022/05/10 19:22:04;;;;;;;1.00;0.60;;;21.20;90.60;;;;;;4973795;28;20371;-70
2022/05/10 19:24:31;;;;;;;2.92;1.00;;;21.30;90.80;;;;;;4958407;28;20219;-69
2022/05/10 19:27:00;;;;;;;1.35;0.63;;;21.30;90.80;;;;;;4974647;28;20211;-72
2022/05/10 19:29:26;;;;;;;0.90;0.60;;;21.20;91.00;;;;;;4963324;28;20537;-70
2022/05/10 19:31:53;;;;;;;0.98;0.60;;;21.20;91.40;;;;;;4969655;28;20207;-70
2022/05/10 19:34:20;;;;;;;0.60;0.50;;;21.20;91.20;;;;;;4972777;28;20223;-70
2022/05/10 19:36:47;;;;;;;2.05;0.63;;;21.20;91.00;;;;;;4968519;28;20224;-70
2022/05/10 19:39:15;;;;;;;0.90;0.50;;;21.20;91.10;;;;;;4964246;28;20208;-70
2022/05/10 19:41:44;;;;;;;1.52;0.70;;;21.10;91.30;;;;;;4961279;28;20211;-70